createdAt,value
2022-12-25T00:00:31.749Z,1014.45
2022-12-25T00:01:34.849Z,1014.41
2022-12-25T00:02:38.531Z,1014.39
2022-12-25T00:04:15.006Z,1014.40
2022-12-25T00:05:17.921Z,1014.37
2022-12-25T00:06:20.685Z,1014.32
2022-12-25T00:07:55.263Z,1014.32
2022-12-25T00:08:58.137Z,1014.31
2022-12-25T00:10:00.877Z,1014.30
2022-12-25T00:11:42.594Z,1014.24
2022-12-25T00:12:45.494Z,1014.20
2022-12-25T00:13:48.224Z,1014.20
2022-12-25T00:15:22.881Z,1014.12
2022-12-25T00:16:25.976Z,1014.08
2022-12-25T00:17:29.108Z,1014.02
2022-12-25T00:19:03.795Z,1013.99
2022-12-25T00:20:06.653Z,1014.02
2022-12-25T00:21:09.420Z,1014.03
2022-12-25T00:22:44.147Z,1014.04
2022-12-25T00:23:47.072Z,1014.10
2022-12-25T00:24:49.935Z,1014.05
2022-12-25T00:26:24.977Z,1014.09
2022-12-25T00:27:27.856Z,1014.10
2022-12-25T00:28:30.819Z,1014.06
2022-12-25T00:30:05.515Z,1013.94
2022-12-25T00:31:08.410Z,1013.90
2022-12-25T00:32:12.083Z,1013.90
2022-12-25T00:33:46.896Z,1013.91
2022-12-25T00:34:49.792Z,1013.94
2022-12-25T00:35:52.849Z,1013.97
2022-12-25T00:37:33.876Z,1013.98
2022-12-25T00:38:36.794Z,1013.96
2022-12-25T00:39:39.855Z,1013.98
2022-12-25T00:41:14.447Z,1013.95
2022-12-25T00:42:17.360Z,1013.94
2022-12-25T00:43:20.050Z,1013.91
2022-12-25T00:44:54.680Z,1013.85
2022-12-25T00:45:57.720Z,1013.84
2022-12-25T00:47:01.254Z,1013.82
2022-12-25T00:48:36.495Z,1013.85
2022-12-25T00:49:39.261Z,1013.89
2022-12-25T00:50:42.106Z,1013.89
2022-12-25T00:52:16.781Z,1013.92
2022-12-25T00:53:19.638Z,1013.93
2022-12-25T00:54:22.541Z,1013.92
2022-12-25T00:55:57.073Z,1013.90
2022-12-25T00:56:59.950Z,1013.85
2022-12-25T00:58:02.817Z,1013.85
2022-12-25T00:59:37.400Z,1013.81
2022-12-25T01:00:23.009Z,1013.81
2022-12-25T01:01:26.628Z,1013.82
2022-12-25T01:02:31.332Z,1013.84
2022-12-25T01:04:07.094Z,1013.85
2022-12-25T01:05:09.876Z,1013.84
2022-12-25T01:06:12.791Z,1013.86
2022-12-25T01:07:47.484Z,1013.89
2022-12-25T01:08:51.763Z,1013.91
2022-12-25T01:09:54.628Z,1013.94
2022-12-25T01:11:29.299Z,1013.94
2022-12-25T01:12:32.115Z,1014.01
2022-12-25T01:13:34.982Z,1014.02
2022-12-25T01:15:09.638Z,1014.04
2022-12-25T01:16:12.698Z,1014.02
2022-12-25T01:17:15.881Z,1014.00
2022-12-25T01:18:59.089Z,1013.99
2022-12-25T01:20:01.799Z,1013.99
2022-12-25T01:21:04.559Z,1014.04
2022-12-25T01:22:39.174Z,1014.05
2022-12-25T01:23:41.984Z,1014.07
2022-12-25T01:24:44.844Z,1014.05
2022-12-25T01:26:19.471Z,1014.01
2022-12-25T01:27:22.460Z,1014.01
2022-12-25T01:28:25.261Z,1014.08
2022-12-25T01:29:59.890Z,1014.09
2022-12-25T01:31:02.676Z,1014.04
2022-12-25T01:32:06.193Z,1014.12
2022-12-25T01:33:41.154Z,1014.16
2022-12-25T01:34:43.922Z,1014.22
2022-12-25T01:35:53.556Z,1014.19
2022-12-25T01:37:28.295Z,1014.25
2022-12-25T01:38:31.087Z,1014.23
2022-12-25T01:39:34.080Z,1014.24
2022-12-25T01:41:08.710Z,1014.20
2022-12-25T01:42:11.549Z,1014.21
2022-12-25T01:43:21.126Z,1014.25
2022-12-25T01:44:55.826Z,1014.18
2022-12-25T01:45:58.997Z,1014.14
2022-12-25T01:47:02.173Z,1014.15
2022-12-25T01:48:36.913Z,1014.16
2022-12-25T01:49:39.648Z,1014.14
2022-12-25T01:50:42.476Z,1014.14
2022-12-25T01:52:23.318Z,1014.08
2022-12-25T01:53:26.934Z,1014.09
2022-12-25T01:54:29.760Z,1014.17
2022-12-25T01:56:04.338Z,1014.14
2022-12-25T01:57:07.235Z,1014.16
2022-12-25T01:58:09.970Z,1014.17
2022-12-25T01:59:44.667Z,1014.20
2022-12-25T02:00:23.688Z,1014.12
2022-12-25T02:01:27.239Z,1014.15
2022-12-25T02:02:31.334Z,1014.16
2022-12-25T02:04:06.936Z,1014.12
2022-12-25T02:05:09.669Z,1014.08
2022-12-25T02:06:12.648Z,1014.02
2022-12-25T02:07:47.279Z,1013.98
2022-12-25T02:08:50.196Z,1014.00
2022-12-25T02:09:52.990Z,1014.01
2022-12-25T02:11:27.563Z,1014.00
2022-12-25T02:12:30.372Z,1014.00
2022-12-25T02:13:33.045Z,1014.02
2022-12-25T02:15:16.025Z,1014.00
2022-12-25T02:16:19.176Z,1014.02
2022-12-25T02:17:45.010Z,1014.04
2022-12-25T02:19:19.689Z,1014.16
2022-12-25T02:20:22.529Z,1014.19
2022-12-25T02:21:25.433Z,1014.20
2022-12-25T02:23:00.104Z,1014.14
2022-12-25T02:24:03.006Z,1014.15
2022-12-25T02:25:05.793Z,1014.17
2022-12-25T02:26:40.478Z,1014.15
2022-12-25T02:27:43.325Z,1014.10
2022-12-25T02:28:51.519Z,1014.13
2022-12-25T02:30:26.337Z,1014.12
2022-12-25T02:31:29.298Z,1014.14
2022-12-25T02:32:32.591Z,1014.10
2022-12-25T02:34:08.493Z,1014.09
2022-12-25T02:35:12.075Z,1014.14
2022-12-25T02:36:14.895Z,1014.10
2022-12-25T02:37:49.602Z,1014.14
2022-12-25T02:38:52.457Z,1014.16
2022-12-25T02:39:55.400Z,1014.19
2022-12-25T02:41:30.129Z,1014.22
2022-12-25T02:42:32.939Z,1014.24
2022-12-25T02:43:35.602Z,1014.20
2022-12-25T02:45:10.274Z,1014.16
2022-12-25T02:46:13.209Z,1014.16
2022-12-25T02:47:16.592Z,1014.15
2022-12-25T02:48:51.184Z,1014.08
2022-12-25T02:49:54.111Z,1014.07
2022-12-25T02:50:56.888Z,1014.05
2022-12-25T02:52:31.389Z,1013.97
2022-12-25T02:53:34.283Z,1014.01
2022-12-25T02:54:37.165Z,1013.96
2022-12-25T02:56:11.817Z,1014.05
2022-12-25T02:57:14.662Z,1014.07
2022-12-25T02:58:17.459Z,1014.09
2022-12-25T02:59:52.150Z,1014.07
2022-12-25T03:00:23.178Z,1014.06
2022-12-25T03:01:26.445Z,1014.04
2022-12-25T03:02:30.350Z,1014.07
2022-12-25T03:04:05.283Z,1014.00
2022-12-25T03:05:08.109Z,1013.97
2022-12-25T03:06:10.990Z,1013.96
2022-12-25T03:07:45.591Z,1013.95
2022-12-25T03:08:48.528Z,1013.91
2022-12-25T03:09:51.295Z,1013.90
2022-12-25T03:11:25.904Z,1013.93
2022-12-25T03:12:28.635Z,1013.92
2022-12-25T03:13:31.448Z,1013.88
2022-12-25T03:15:06.081Z,1013.86
2022-12-25T03:16:08.893Z,1013.82
2022-12-25T03:17:12.361Z,1013.80
2022-12-25T03:18:47.000Z,1013.78
2022-12-25T03:19:49.785Z,1013.77
2022-12-25T03:20:52.631Z,1013.71
2022-12-25T03:22:27.216Z,1013.72
2022-12-25T03:23:30.108Z,1013.71
2022-12-25T03:24:32.934Z,1013.68
2022-12-25T03:26:07.699Z,1013.63
2022-12-25T03:27:10.498Z,1013.63
2022-12-25T03:28:13.265Z,1013.61
2022-12-25T03:29:48.116Z,1013.65
2022-12-25T03:30:51.072Z,1013.61
2022-12-25T03:31:54.332Z,1013.60
2022-12-25T03:33:56.412Z,1013.58
2022-12-25T03:34:59.277Z,1013.55
2022-12-25T03:36:02.069Z,1013.52
2022-12-25T03:37:36.602Z,1013.52
2022-12-25T03:38:39.375Z,1013.45
2022-12-25T03:39:42.168Z,1013.48
2022-12-25T03:41:16.735Z,1013.38
2022-12-25T03:42:19.827Z,1013.36
2022-12-25T03:43:22.640Z,1013.31
2022-12-25T03:44:57.279Z,1013.35
2022-12-25T03:46:00.559Z,1013.35
2022-12-25T03:47:03.816Z,1013.39
2022-12-25T03:48:38.359Z,1013.45
2022-12-25T03:49:41.206Z,1013.43
2022-12-25T03:50:44.157Z,1013.50
2022-12-25T03:52:18.821Z,1013.52
2022-12-25T03:53:21.588Z,1013.53
2022-12-25T03:54:24.417Z,1013.53
2022-12-25T03:55:58.908Z,1013.48
2022-12-25T03:57:01.824Z,1013.58
2022-12-25T03:58:04.679Z,1013.58
2022-12-25T03:59:39.302Z,1013.58
2022-12-25T04:00:23.900Z,1013.57
2022-12-25T04:01:27.087Z,1013.52
2022-12-25T04:02:32.027Z,1013.54
2022-12-25T04:04:07.717Z,1013.53
2022-12-25T04:05:10.584Z,1013.52
2022-12-25T04:06:13.395Z,1013.49
2022-12-25T04:07:48.062Z,1013.44
2022-12-25T04:08:51.049Z,1013.45
2022-12-25T04:09:53.758Z,1013.46
2022-12-25T04:11:28.517Z,1013.44
2022-12-25T04:12:31.448Z,1013.47
2022-12-25T04:13:34.256Z,1013.43
2022-12-25T04:15:08.997Z,1013.38
2022-12-25T04:16:12.147Z,1013.44
2022-12-25T04:17:15.244Z,1013.44
2022-12-25T04:18:49.935Z,1013.47
2022-12-25T04:19:52.735Z,1013.41
2022-12-25T04:20:55.569Z,1013.44
2022-12-25T04:22:30.093Z,1013.44
2022-12-25T04:23:32.902Z,1013.43
2022-12-25T04:24:35.660Z,1013.40
2022-12-25T04:26:10.339Z,1013.39
2022-12-25T04:27:13.377Z,1013.38
2022-12-25T04:28:16.240Z,1013.38
2022-12-25T04:29:52.220Z,1013.35
2022-12-25T04:30:55.215Z,1013.35
2022-12-25T04:31:58.297Z,1013.29
2022-12-25T04:33:32.956Z,1013.29
2022-12-25T04:34:35.708Z,1013.35
2022-12-25T04:35:38.642Z,1013.36
2022-12-25T04:37:13.425Z,1013.41
2022-12-25T04:38:16.194Z,1013.47
2022-12-25T04:39:19.043Z,1013.45
2022-12-25T04:40:53.879Z,1013.47
2022-12-25T04:41:56.695Z,1013.47
2022-12-25T04:42:59.421Z,1013.45
2022-12-25T04:44:34.013Z,1013.44
2022-12-25T04:45:37.024Z,1013.39
2022-12-25T04:46:40.167Z,1013.43
2022-12-25T04:48:15.206Z,1013.53
2022-12-25T04:49:18.150Z,1013.52
2022-12-25T04:50:21.027Z,1013.52
2022-12-25T04:51:55.707Z,1013.46
2022-12-25T04:52:58.495Z,1013.51
2022-12-25T04:54:01.405Z,1013.50
2022-12-25T04:55:36.194Z,1013.51
2022-12-25T04:56:45.276Z,1013.47
2022-12-25T04:57:48.721Z,1013.51
2022-12-25T04:59:23.371Z,1013.59
2022-12-25T05:00:23.670Z,1013.58
2022-12-25T05:01:27.185Z,1013.61
2022-12-25T05:02:31.661Z,1013.57
2022-12-25T05:04:08.206Z,1013.54
2022-12-25T05:05:52.688Z,1013.49
2022-12-25T05:06:55.883Z,1013.52
2022-12-25T05:07:58.775Z,1013.48
2022-12-25T05:09:33.708Z,1013.45
2022-12-25T05:10:36.874Z,1013.43
2022-12-25T05:11:39.546Z,1013.49
2022-12-25T05:13:14.175Z,1013.44
2022-12-25T05:14:17.297Z,1013.49
2022-12-25T05:15:20.305Z,1013.46
2022-12-25T05:16:55.467Z,1013.48
2022-12-25T05:17:58.250Z,1013.47
2022-12-25T05:19:01.183Z,1013.48
2022-12-25T05:20:43.701Z,1013.45
2022-12-25T05:21:46.862Z,1013.45
2022-12-25T05:22:49.795Z,1013.48
2022-12-25T05:24:24.695Z,1013.48
2022-12-25T05:25:27.561Z,1013.47
2022-12-25T05:26:30.522Z,1013.46
2022-12-25T05:28:05.538Z,1013.46
2022-12-25T05:29:08.311Z,1013.42
2022-12-25T05:30:11.402Z,1013.34
2022-12-25T05:31:46.694Z,1013.25
2022-12-25T05:32:49.509Z,1013.26
2022-12-25T05:33:52.408Z,1013.25
2022-12-25T05:35:27.217Z,1013.25
2022-12-25T05:36:30.226Z,1013.24
2022-12-25T05:37:33.038Z,1013.22
2022-12-25T05:39:07.644Z,1013.22
2022-12-25T05:40:10.593Z,1013.10
2022-12-25T05:41:13.398Z,1013.08
2022-12-25T05:42:53.006Z,1013.02
2022-12-25T05:43:55.857Z,1013.04
2022-12-25T05:44:58.763Z,1013.05
2022-12-25T05:46:33.585Z,1013.03
2022-12-25T05:47:37.054Z,1013.01
2022-12-25T05:48:39.933Z,1013.04
2022-12-25T05:50:14.673Z,1013.02
2022-12-25T05:51:17.508Z,1012.98
2022-12-25T05:52:20.319Z,1013.01
2022-12-25T05:54:03.415Z,1012.96
2022-12-25T05:55:06.859Z,1012.91
2022-12-25T05:56:09.766Z,1012.98
2022-12-25T05:57:44.546Z,1012.96
2022-12-25T05:58:47.484Z,1013.00
2022-12-25T05:59:50.375Z,1012.96
2022-12-25T06:00:23.435Z,1012.94
2022-12-25T06:01:26.611Z,1012.97
2022-12-25T06:02:31.096Z,1012.98
2022-12-25T06:04:15.971Z,1013.03
2022-12-25T06:05:18.805Z,1013.00
2022-12-25T06:06:21.818Z,1013.03
2022-12-25T06:07:56.538Z,1012.96
2022-12-25T06:08:59.536Z,1012.97
2022-12-25T06:10:02.474Z,1012.95
2022-12-25T06:11:37.098Z,1012.97
2022-12-25T06:12:39.927Z,1012.99
2022-12-25T06:13:42.675Z,1013.01
2022-12-25T06:15:17.342Z,1013.08
2022-12-25T06:16:20.320Z,1013.05
2022-12-25T06:17:30.155Z,1013.03
2022-12-25T06:19:04.817Z,1012.96
2022-12-25T06:20:07.649Z,1012.94
2022-12-25T06:21:10.478Z,1012.89
2022-12-25T06:22:45.593Z,1012.87
2022-12-25T06:23:49.342Z,1012.91
2022-12-25T06:24:52.788Z,1012.86
2022-12-25T06:26:27.835Z,1012.83
2022-12-25T06:27:30.609Z,1012.86
2022-12-25T06:28:33.522Z,1012.89
2022-12-25T06:30:08.726Z,1012.92
2022-12-25T06:31:11.604Z,1012.85
2022-12-25T06:32:14.821Z,1012.86
2022-12-25T06:33:49.365Z,1012.77
2022-12-25T06:34:52.310Z,1012.73
2022-12-25T06:35:55.141Z,1012.69
2022-12-25T06:37:29.845Z,1012.66
2022-12-25T06:38:32.896Z,1012.64
2022-12-25T06:39:35.842Z,1012.67
2022-12-25T06:41:10.669Z,1012.65
2022-12-25T06:42:13.594Z,1012.66
2022-12-25T06:43:16.403Z,1012.64
2022-12-25T06:44:51.258Z,1012.64
2022-12-25T06:45:54.197Z,1012.63
2022-12-25T06:46:57.312Z,1012.63
2022-12-25T06:48:32.135Z,1012.64
2022-12-25T06:49:34.964Z,1012.70
2022-12-25T06:50:37.910Z,1012.70
2022-12-25T06:52:12.540Z,1012.67
2022-12-25T06:53:15.426Z,1012.71
2022-12-25T06:54:26.034Z,1012.72
2022-12-25T06:56:00.831Z,1012.73
2022-12-25T06:57:03.992Z,1012.76
2022-12-25T06:58:07.032Z,1012.77
2022-12-25T06:59:41.696Z,1012.77
2022-12-25T07:00:22.981Z,1012.75
2022-12-25T07:01:26.992Z,1012.71
2022-12-25T07:02:31.248Z,1012.68
2022-12-25T07:04:06.945Z,1012.56
2022-12-25T07:05:09.828Z,1012.56
2022-12-25T07:06:12.839Z,1012.56
2022-12-25T07:07:54.956Z,1012.57
2022-12-25T07:08:57.783Z,1012.54
2022-12-25T07:10:00.722Z,1012.55
2022-12-25T07:11:35.643Z,1012.66
2022-12-25T07:12:38.452Z,1012.70
2022-12-25T07:13:41.360Z,1012.72
2022-12-25T07:15:21.625Z,1012.74
2022-12-25T07:16:24.572Z,1012.71
2022-12-25T07:17:27.962Z,1012.68
2022-12-25T07:19:02.547Z,1012.67
2022-12-25T07:20:05.492Z,1012.60
2022-12-25T07:21:08.279Z,1012.57
2022-12-25T07:22:42.939Z,1012.54
2022-12-25T07:23:45.722Z,1012.56
2022-12-25T07:24:48.553Z,1012.57
2022-12-25T07:26:29.264Z,1012.54
2022-12-25T07:27:32.022Z,1012.54
2022-12-25T07:28:34.937Z,1012.54
2022-12-25T07:30:09.721Z,1012.48
2022-12-25T07:31:12.733Z,1012.46
2022-12-25T07:32:16.500Z,1012.52
2022-12-25T07:33:51.332Z,1012.54
2022-12-25T07:34:54.134Z,1012.57
2022-12-25T07:35:56.958Z,1012.60
2022-12-25T07:37:36.286Z,1012.64
2022-12-25T07:38:39.161Z,1012.66
2022-12-25T07:39:42.078Z,1012.63
2022-12-25T07:41:16.913Z,1012.69
2022-12-25T07:42:25.005Z,1012.72
2022-12-25T07:43:28.425Z,1012.75
2022-12-25T07:45:03.082Z,1012.76
2022-12-25T07:46:06.237Z,1012.77
2022-12-25T07:47:09.852Z,1012.78
2022-12-25T07:48:52.447Z,1012.75
2022-12-25T07:49:55.387Z,1012.71
2022-12-25T07:50:58.300Z,1012.70
2022-12-25T07:52:38.031Z,1012.67
2022-12-25T07:53:44.414Z,1012.66
2022-12-25T07:54:47.247Z,1012.65
2022-12-25T07:56:22.049Z,1012.64
2022-12-25T07:57:24.903Z,1012.65
2022-12-25T07:58:34.677Z,1012.68
2022-12-25T08:00:23.507Z,1012.70
2022-12-25T08:01:27.591Z,1012.71
2022-12-25T08:02:32.739Z,1012.71
2022-12-25T08:04:10.484Z,1012.74
2022-12-25T08:05:13.671Z,1012.75
2022-12-25T08:06:16.639Z,1012.78
2022-12-25T08:07:57.112Z,1012.79
2022-12-25T08:09:00.740Z,1012.81
2022-12-25T08:10:03.702Z,1012.79
2022-12-25T08:11:38.424Z,1012.84
2022-12-25T08:12:41.436Z,1012.89
2022-12-25T08:13:44.327Z,1012.85
2022-12-25T08:15:19.068Z,1012.85
2022-12-25T08:16:22.217Z,1012.76
2022-12-25T08:17:25.745Z,1012.73
2022-12-25T08:19:00.260Z,1012.68
2022-12-25T08:20:03.327Z,1012.65
2022-12-25T08:21:06.113Z,1012.66
2022-12-25T08:22:40.879Z,1012.70
2022-12-25T08:23:43.807Z,1012.70
2022-12-25T08:24:46.814Z,1012.71
2022-12-25T08:26:21.568Z,1012.72
2022-12-25T08:27:24.482Z,1012.76
2022-12-25T08:28:27.409Z,1012.83
2022-12-25T08:30:02.167Z,1012.81
2022-12-25T08:31:05.189Z,1012.81
2022-12-25T08:32:08.503Z,1012.84
2022-12-25T08:33:43.356Z,1012.83
2022-12-25T08:34:46.364Z,1012.85
2022-12-25T08:35:49.350Z,1012.93
2022-12-25T08:37:24.159Z,1012.95
2022-12-25T08:38:27.143Z,1013.03
2022-12-25T08:39:29.855Z,1012.99
2022-12-25T08:41:04.771Z,1013.01
2022-12-25T08:42:07.618Z,1012.94
2022-12-25T08:43:10.497Z,1012.92
2022-12-25T08:44:45.151Z,1012.91
2022-12-25T08:45:48.113Z,1012.87
2022-12-25T08:46:53.019Z,1012.87
2022-12-25T08:48:27.754Z,1012.83
2022-12-25T08:49:30.942Z,1012.79
2022-12-25T08:50:34.432Z,1012.82
2022-12-25T08:52:09.076Z,1012.75
2022-12-25T08:53:12.067Z,1012.73
2022-12-25T08:54:15.130Z,1012.73
2022-12-25T08:55:49.727Z,1012.73
2022-12-25T08:56:56.083Z,1012.72
2022-12-25T08:58:01.673Z,1012.72
2022-12-25T08:59:36.432Z,1012.79
2022-12-25T09:00:23.344Z,1012.80
2022-12-25T09:01:27.145Z,1012.74
2022-12-25T09:02:31.610Z,1012.67
2022-12-25T09:04:07.498Z,1012.56
2022-12-25T09:05:10.561Z,1012.50
2022-12-25T09:06:13.530Z,1012.46
2022-12-25T09:07:48.435Z,1012.45
2022-12-25T09:08:59.648Z,1012.45
2022-12-25T09:10:02.447Z,1012.41
2022-12-25T09:11:37.038Z,1012.44
2022-12-25T09:12:39.780Z,1012.43
2022-12-25T09:13:42.836Z,1012.52
2022-12-25T09:15:17.493Z,1012.54
2022-12-25T09:16:20.636Z,1012.61
2022-12-25T09:17:23.953Z,1012.62
2022-12-25T09:18:58.677Z,1012.66
2022-12-25T09:20:01.545Z,1012.67
2022-12-25T09:21:04.441Z,1012.71
2022-12-25T09:22:39.097Z,1012.68
2022-12-25T09:23:42.001Z,1012.68
2022-12-25T09:24:44.922Z,1012.69
2022-12-25T09:26:19.812Z,1012.69
2022-12-25T09:27:22.735Z,1012.67
2022-12-25T09:28:25.542Z,1012.63
2022-12-25T09:30:08.369Z,1012.60
2022-12-25T09:31:11.593Z,1012.59
2022-12-25T09:32:14.953Z,1012.61
2022-12-25T09:33:49.549Z,1012.60
2022-12-25T09:34:52.905Z,1012.61
2022-12-25T09:35:55.900Z,1012.63
2022-12-25T09:37:31.335Z,1012.62
2022-12-25T09:38:34.280Z,1012.64
2022-12-25T09:39:42.188Z,1012.65
2022-12-25T09:41:20.939Z,1012.64
2022-12-25T09:42:23.694Z,1012.64
2022-12-25T09:43:26.443Z,1012.70
2022-12-25T09:45:01.488Z,1012.58
2022-12-25T09:46:04.429Z,1012.55
2022-12-25T09:47:07.820Z,1012.58
2022-12-25T09:48:42.711Z,1012.62
2022-12-25T09:49:45.575Z,1012.62
2022-12-25T09:50:48.486Z,1012.69
2022-12-25T09:52:23.211Z,1012.77
2022-12-25T09:53:26.137Z,1012.78
2022-12-25T09:54:28.958Z,1012.79
2022-12-25T09:56:11.855Z,1012.82
2022-12-25T09:57:14.760Z,1012.80
2022-12-25T09:58:17.583Z,1012.78
2022-12-25T09:59:52.447Z,1012.71
2022-12-25T10:00:23.886Z,1012.71
2022-12-25T10:01:27.347Z,1012.71
2022-12-25T10:02:31.736Z,1012.67
2022-12-25T10:04:08.609Z,1012.66
2022-12-25T10:05:11.495Z,1012.68
2022-12-25T10:06:14.377Z,1012.66
2022-12-25T10:07:49.313Z,1012.67
2022-12-25T10:08:52.330Z,1012.57
2022-12-25T10:09:55.189Z,1012.51
2022-12-25T10:11:29.928Z,1012.47
2022-12-25T10:12:32.981Z,1012.48
2022-12-25T10:13:35.709Z,1012.53
2022-12-25T10:15:10.439Z,1012.65
2022-12-25T10:16:13.519Z,1012.68
2022-12-25T10:17:16.737Z,1012.60
2022-12-25T10:18:51.427Z,1012.60
2022-12-25T10:19:54.335Z,1012.58
2022-12-25T10:20:57.315Z,1012.55
2022-12-25T10:22:38.592Z,1012.47
2022-12-25T10:23:41.617Z,1012.42
2022-12-25T10:24:44.642Z,1012.41
2022-12-25T10:26:19.349Z,1012.37
2022-12-25T10:27:22.298Z,1012.37
2022-12-25T10:28:25.085Z,1012.41
2022-12-25T10:29:59.893Z,1012.38
2022-12-25T10:31:03.070Z,1012.41
2022-12-25T10:32:06.467Z,1012.42
2022-12-25T10:33:41.195Z,1012.48
2022-12-25T10:34:44.050Z,1012.44
2022-12-25T10:35:47.230Z,1012.37
2022-12-25T10:37:22.142Z,1012.35
2022-12-25T10:38:25.013Z,1012.29
2022-12-25T10:39:28.094Z,1012.29
2022-12-25T10:41:10.007Z,1012.27
2022-12-25T10:42:12.985Z,1012.31
2022-12-25T10:43:15.816Z,1012.30
2022-12-25T10:44:50.585Z,1012.15
2022-12-25T10:45:53.531Z,1012.08
2022-12-25T10:46:57.000Z,1012.04
2022-12-25T10:48:45.765Z,1011.99
2022-12-25T10:49:48.754Z,1011.93
2022-12-25T10:50:51.565Z,1011.94
2022-12-25T10:52:26.397Z,1012.01
2022-12-25T10:53:29.509Z,1012.05
2022-12-25T10:54:32.392Z,1012.09
2022-12-25T10:56:14.874Z,1012.15
2022-12-25T10:57:17.885Z,1012.14
2022-12-25T10:58:21.018Z,1012.10
2022-12-25T10:59:55.727Z,1011.99
2022-12-25T11:00:23.341Z,1012.00
2022-12-25T11:01:26.456Z,1011.94
2022-12-25T11:02:30.791Z,1011.97
2022-12-25T11:04:08.153Z,1012.01
2022-12-25T11:05:11.127Z,1012.01
2022-12-25T11:06:14.195Z,1011.95
2022-12-25T11:07:48.959Z,1011.90
2022-12-25T11:08:51.984Z,1011.92
2022-12-25T11:09:59.371Z,1011.94
2022-12-25T11:11:37.598Z,1011.90
2022-12-25T11:12:40.424Z,1011.78
2022-12-25T11:13:43.483Z,1011.80
2022-12-25T11:15:18.324Z,1011.74
2022-12-25T11:16:21.292Z,1011.68
2022-12-25T11:17:24.794Z,1011.69
2022-12-25T11:18:59.754Z,1011.68
2022-12-25T11:20:02.684Z,1011.61
2022-12-25T11:21:06.041Z,1011.59
2022-12-25T11:22:40.864Z,1011.55
2022-12-25T11:23:43.736Z,1011.55
2022-12-25T11:24:46.832Z,1011.57
2022-12-25T11:26:21.808Z,1011.53
2022-12-25T11:27:24.647Z,1011.57
2022-12-25T11:28:27.736Z,1011.53
2022-12-25T11:30:02.549Z,1011.53
2022-12-25T11:31:13.416Z,1011.56
2022-12-25T11:32:16.686Z,1011.54
2022-12-25T11:33:51.441Z,1011.52
2022-12-25T11:34:54.454Z,1011.57
2022-12-25T11:35:57.355Z,1011.52
2022-12-25T11:37:32.092Z,1011.48
2022-12-25T11:38:35.159Z,1011.49
2022-12-25T11:39:38.001Z,1011.47
2022-12-25T11:41:12.767Z,1011.33
2022-12-25T11:42:15.642Z,1011.29
2022-12-25T11:43:19.762Z,1011.31
2022-12-25T11:44:54.742Z,1011.30
2022-12-25T11:45:57.690Z,1011.21
2022-12-25T11:47:01.058Z,1011.14
2022-12-25T11:48:36.174Z,1011.17
2022-12-25T11:49:39.000Z,1011.16
2022-12-25T11:50:52.736Z,1011.12
2022-12-25T11:52:27.412Z,1011.00
2022-12-25T11:53:30.484Z,1010.98
2022-12-25T11:54:33.463Z,1010.89
2022-12-25T11:56:09.006Z,1010.88
2022-12-25T11:57:11.914Z,1010.88
2022-12-25T11:58:14.833Z,1010.91
2022-12-25T11:59:49.625Z,1010.84
2022-12-25T12:00:22.976Z,1010.84
2022-12-25T12:01:25.826Z,1010.79
2022-12-25T12:02:30.010Z,1010.78
2022-12-25T12:04:07.201Z,1010.73
2022-12-25T12:05:17.037Z,1010.68
2022-12-25T12:06:20.115Z,1010.60
2022-12-25T12:07:54.845Z,1010.60
2022-12-25T12:08:57.816Z,1010.63
2022-12-25T12:10:00.731Z,1010.62
2022-12-25T12:11:35.563Z,1010.62
2022-12-25T12:12:43.131Z,1010.62
2022-12-25T12:13:49.606Z,1010.59
2022-12-25T12:15:24.261Z,1010.60
2022-12-25T12:16:27.360Z,1010.61
2022-12-25T12:17:30.408Z,1010.65
2022-12-25T12:19:05.240Z,1010.58
2022-12-25T12:20:08.172Z,1010.52
2022-12-25T12:21:11.168Z,1010.48
2022-12-25T12:22:45.896Z,1010.47
2022-12-25T12:23:48.751Z,1010.49
2022-12-25T12:24:51.621Z,1010.50
2022-12-25T12:26:26.632Z,1010.46
2022-12-25T12:27:29.624Z,1010.46
2022-12-25T12:28:32.591Z,1010.48
2022-12-25T12:30:07.374Z,1010.48
2022-12-25T12:31:10.355Z,1010.51
2022-12-25T12:32:13.781Z,1010.51
2022-12-25T12:33:48.556Z,1010.51
2022-12-25T12:34:52.184Z,1010.50
2022-12-25T12:35:55.101Z,1010.49
2022-12-25T12:37:36.430Z,1010.46
2022-12-25T12:38:39.375Z,1010.45
2022-12-25T12:39:42.339Z,1010.48
2022-12-25T12:41:17.045Z,1010.43
2022-12-25T12:42:19.920Z,1010.41
2022-12-25T12:43:22.883Z,1010.40
2022-12-25T12:44:57.565Z,1010.39
2022-12-25T12:46:00.705Z,1010.44
2022-12-25T12:47:05.894Z,1010.43
2022-12-25T12:48:40.761Z,1010.41
2022-12-25T12:49:43.752Z,1010.38
2022-12-25T12:50:46.775Z,1010.37
2022-12-25T12:52:21.617Z,1010.37
2022-12-25T12:53:24.617Z,1010.36
2022-12-25T12:54:27.667Z,1010.32
2022-12-25T12:56:02.345Z,1010.30
2022-12-25T12:57:05.260Z,1010.25
2022-12-25T12:58:08.282Z,1010.20
2022-12-25T12:59:42.955Z,1010.18
2022-12-25T13:00:23.655Z,1010.17
2022-12-25T13:01:27.348Z,1010.15
2022-12-25T13:02:31.300Z,1010.15
2022-12-25T13:04:07.455Z,1010.06
2022-12-25T13:05:10.387Z,1009.99
2022-12-25T13:06:20.628Z,1009.89
2022-12-25T13:07:55.600Z,1009.89
2022-12-25T13:08:58.417Z,1009.96
2022-12-25T13:10:01.538Z,1010.01
2022-12-25T13:11:36.425Z,1009.97
2022-12-25T13:12:39.215Z,1009.98
2022-12-25T13:13:42.116Z,1009.94
2022-12-25T13:15:16.853Z,1009.97
2022-12-25T13:16:20.080Z,1010.06
2022-12-25T13:17:22.985Z,1010.10
2022-12-25T13:18:57.578Z,1010.16
2022-12-25T13:20:00.425Z,1010.15
2022-12-25T13:21:03.308Z,1010.08
2022-12-25T13:22:38.198Z,1010.07
2022-12-25T13:23:49.589Z,1009.98
2022-12-25T13:24:52.538Z,1009.98
2022-12-25T13:26:27.461Z,1009.95
2022-12-25T13:27:30.334Z,1009.95
2022-12-25T13:28:33.144Z,1009.94
2022-12-25T13:30:09.097Z,1009.95
2022-12-25T13:31:12.039Z,1009.96
2022-12-25T13:32:15.529Z,1009.94
2022-12-25T13:33:50.538Z,1009.93
2022-12-25T13:34:53.455Z,1009.87
2022-12-25T13:35:56.275Z,1009.83
2022-12-25T13:37:30.969Z,1009.82
2022-12-25T13:38:33.933Z,1009.83
2022-12-25T13:39:36.857Z,1009.92
2022-12-25T13:41:11.538Z,1009.91
2022-12-25T13:42:14.433Z,1009.95
2022-12-25T13:43:17.683Z,1010.01
2022-12-25T13:44:52.481Z,1010.00
2022-12-25T13:45:55.809Z,1009.96
2022-12-25T13:46:59.267Z,1009.97
2022-12-25T13:48:41.217Z,1009.93
2022-12-25T13:49:45.346Z,1009.94
2022-12-25T13:50:48.076Z,1009.84
2022-12-25T13:52:23.513Z,1009.84
2022-12-25T13:53:26.394Z,1009.80
2022-12-25T13:54:29.183Z,1009.84
2022-12-25T13:56:03.899Z,1009.84
2022-12-25T13:57:06.630Z,1009.83
2022-12-25T13:58:09.659Z,1009.79
2022-12-25T13:59:44.411Z,1009.71
2022-12-25T14:00:23.214Z,1009.73
2022-12-25T14:01:26.541Z,1009.76
2022-12-25T14:02:30.795Z,1009.74
2022-12-25T14:04:07.007Z,1009.73
2022-12-25T14:05:09.991Z,1009.69
2022-12-25T14:06:12.934Z,1009.71
2022-12-25T14:07:47.783Z,1009.69
2022-12-25T14:08:50.753Z,1009.68
2022-12-25T14:09:53.601Z,1009.66
2022-12-25T14:11:28.377Z,1009.69
2022-12-25T14:12:31.174Z,1009.67
2022-12-25T14:13:34.162Z,1009.65
2022-12-25T14:15:08.939Z,1009.67
2022-12-25T14:16:11.914Z,1009.66
2022-12-25T14:17:15.331Z,1009.66
2022-12-25T14:18:49.996Z,1009.59
2022-12-25T14:19:52.954Z,1009.52
2022-12-25T14:21:03.334Z,1009.52
2022-12-25T14:22:38.059Z,1009.52
2022-12-25T14:23:40.888Z,1009.48
2022-12-25T14:24:43.921Z,1009.50
2022-12-25T14:26:18.694Z,1009.52
2022-12-25T14:27:21.659Z,1009.46
2022-12-25T14:28:24.521Z,1009.50
2022-12-25T14:30:14.302Z,1009.46
2022-12-25T14:31:17.759Z,1009.41
2022-12-25T14:32:21.041Z,1009.46
2022-12-25T14:33:55.779Z,1009.50
2022-12-25T14:34:58.622Z,1009.50
2022-12-25T14:36:09.229Z,1009.51
2022-12-25T14:37:44.063Z,1009.48
2022-12-25T14:38:46.893Z,1009.46
2022-12-25T14:39:49.693Z,1009.50
2022-12-25T14:41:31.700Z,1009.51
2022-12-25T14:42:34.563Z,1009.52
2022-12-25T14:43:37.443Z,1009.48
2022-12-25T14:45:12.124Z,1009.46
2022-12-25T14:46:15.463Z,1009.51
2022-12-25T14:47:18.706Z,1009.51
2022-12-25T14:48:53.414Z,1009.48
2022-12-25T14:49:56.291Z,1009.46